sensor_id;sensor_type;location;lat;lon;timestamp;P1;durP1;ratioP1;P2;durP2;ratioP2
37477;SDS011;23334;54.316;10.182;2023-04-16T00:00:50;20.10;;;13.87;;
37477;SDS011;23334;54.316;10.182;2023-04-16T00:03:16;32.40;;;13.80;;
37477;SDS011;23334;54.316;10.182;2023-04-16T00:05:41;23.00;;;12.80;;
37477;SDS011;23334;54.316;10.182;2023-04-16T00:08:07;23.60;;;14.13;;
37477;SDS011;23334;54.316;10.182;2023-04-16T00:10:35;25.60;;;13.80;;
37477;SDS011;23334;54.316;10.182;2023-04-16T00:13:01;23.90;;;12.90;;
37477;SDS011;23334;54.316;10.182;2023-04-16T00:15:27;22.00;;;13.87;;
37477;SDS011;23334;54.316;10.182;2023-04-16T00:17:52;22.80;;;12.20;;
37477;SDS011;23334;54.316;10.182;2023-04-16T00:20:18;18.37;;;11.90;;
37477;SDS011;23334;54.316;10.182;2023-04-16T00:22:44;26.30;;;14.60;;
37477;SDS011;23334;54.316;10.182;2023-04-16T00:25:10;24.60;;;12.60;;
37477;SDS011;23334;54.316;10.182;2023-04-16T00:27:35;20.13;;;12.73;;
37477;SDS011;23334;54.316;10.182;2023-04-16T00:30:01;27.03;;;14.30;;
37477;SDS011;23334;54.316;10.182;2023-04-16T00:32:27;25.83;;;12.60;;
37477;SDS011;23334;54.316;10.182;2023-04-16T00:34:53;19.90;;;12.60;;
37477;SDS011;23334;54.316;10.182;2023-04-16T00:37:19;23.70;;;12.97;;
37477;SDS011;23334;54.316;10.182;2023-04-16T00:39:45;21.40;;;13.93;;
37477;SDS011;23334;54.316;10.182;2023-04-16T00:42:11;19.83;;;12.93;;
37477;SDS011;23334;54.316;10.182;2023-04-16T00:44:36;29.70;;;13.10;;
37477;SDS011;23334;54.316;10.182;2023-04-16T00:47:02;24.57;;;12.83;;
37477;SDS011;23334;54.316;10.182;2023-04-16T00:49:28;21.03;;;13.40;;
37477;SDS011;23334;54.316;10.182;2023-04-16T00:51:55;23.70;;;13.20;;
37477;SDS011;23334;54.316;10.182;2023-04-16T00:54:20;24.40;;;13.17;;
37477;SDS011;23334;54.316;10.182;2023-04-16T00:56:46;21.70;;;12.63;;
37477;SDS011;23334;54.316;10.182;2023-04-16T00:59:12;16.60;;;11.83;;
37477;SDS011;23334;54.316;10.182;2023-04-16T01:01:37;25.17;;;12.77;;
37477;SDS011;23334;54.316;10.182;2023-04-16T01:04:03;21.93;;;12.00;;
37477;SDS011;23334;54.316;10.182;2023-04-16T01:06:30;18.50;;;12.67;;
37477;SDS011;23334;54.316;10.182;2023-04-16T01:08:56;20.63;;;12.40;;
37477;SDS011;23334;54.316;10.182;2023-04-16T01:11:21;19.77;;;11.73;;
37477;SDS011;23334;54.316;10.182;2023-04-16T01:13:47;22.03;;;12.27;;
37477;SDS011;23334;54.316;10.182;2023-04-16T01:16:12;16.87;;;11.67;;
37477;SDS011;23334;54.316;10.182;2023-04-16T01:18:38;18.10;;;12.30;;
37477;SDS011;23334;54.316;10.182;2023-04-16T01:21:04;21.67;;;12.60;;
37477;SDS011;23334;54.316;10.182;2023-04-16T01:23:30;18.27;;;11.63;;
37477;SDS011;23334;54.316;10.182;2023-04-16T01:25:56;19.30;;;11.90;;
37477;SDS011;23334;54.316;10.182;2023-04-16T01:28:21;24.67;;;12.47;;
37477;SDS011;23334;54.316;10.182;2023-04-16T01:30:47;21.40;;;12.37;;
37477;SDS011;23334;54.316;10.182;2023-04-16T01:33:13;19.43;;;12.33;;
37477;SDS011;23334;54.316;10.182;2023-04-16T01:35:39;19.40;;;12.60;;
37477;SDS011;23334;54.316;10.182;2023-04-16T01:38:05;16.87;;;12.07;;
37477;SDS011;23334;54.316;10.182;2023-04-16T01:40:33;20.60;;;11.77;;
37477;SDS011;23334;54.316;10.182;2023-04-16T01:42:59;18.70;;;11.83;;
37477;SDS011;23334;54.316;10.182;2023-04-16T01:45:25;19.27;;;12.90;;
37477;SDS011;23334;54.316;10.182;2023-04-16T01:47:50;21.53;;;13.27;;
37477;SDS011;23334;54.316;10.182;2023-04-16T01:50:17;19.80;;;11.70;;
37477;SDS011;23334;54.316;10.182;2023-04-16T01:52:44;23.87;;;13.17;;
37477;SDS011;23334;54.316;10.182;2023-04-16T01:55:09;19.43;;;13.10;;
37477;SDS011;23334;54.316;10.182;2023-04-16T01:57:35;23.93;;;13.30;;
37477;SDS011;23334;54.316;10.182;2023-04-16T02:00:01;20.00;;;12.70;;
37477;SDS011;23334;54.316;10.182;2023-04-16T02:02:27;23.03;;;12.83;;
37477;SDS011;23334;54.316;10.182;2023-04-16T02:04:53;19.27;;;13.20;;
37477;SDS011;23334;54.316;10.182;2023-04-16T02:07:19;22.50;;;13.20;;
37477;SDS011;23334;54.316;10.182;2023-04-16T02:09:45;16.90;;;12.37;;
37477;SDS011;23334;54.316;10.182;2023-04-16T02:12:10;23.33;;;12.97;;
37477;SDS011;23334;54.316;10.182;2023-04-16T02:14:35;19.57;;;13.00;;
37477;SDS011;23334;54.316;10.182;2023-04-16T02:17:01;28.63;;;12.53;;
37477;SDS011;23334;54.316;10.182;2023-04-16T02:19:27;19.50;;;12.40;;
37477;SDS011;23334;54.316;10.182;2023-04-16T02:21:53;24.13;;;13.70;;
37477;SDS011;23334;54.316;10.182;2023-04-16T02:24:19;22.40;;;12.20;;
37477;SDS011;23334;54.316;10.182;2023-04-16T02:26:45;18.57;;;13.10;;
37477;SDS011;23334;54.316;10.182;2023-04-16T02:29:11;29.60;;;13.80;;
37477;SDS011;23334;54.316;10.182;2023-04-16T02:31:37;21.50;;;12.90;;
37477;SDS011;23334;54.316;10.182;2023-04-16T02:34:03;20.10;;;13.37;;
37477;SDS011;23334;54.316;10.182;2023-04-16T02:36:29;21.07;;;13.20;;
37477;SDS011;23334;54.316;10.182;2023-04-16T02:38:56;19.50;;;11.97;;
37477;SDS011;23334;54.316;10.182;2023-04-16T02:41:22;21.17;;;12.80;;
37477;SDS011;23334;54.316;10.182;2023-04-16T02:43:47;18.77;;;12.13;;
37477;SDS011;23334;54.316;10.182;2023-04-16T02:46:13;19.40;;;12.80;;
37477;SDS011;23334;54.316;10.182;2023-04-16T02:48:38;21.07;;;12.30;;
37477;SDS011;23334;54.316;10.182;2023-04-16T02:51:04;24.27;;;13.03;;
37477;SDS011;23334;54.316;10.182;2023-04-16T02:53:29;22.03;;;11.50;;
37477;SDS011;23334;54.316;10.182;2023-04-16T02:55:55;19.60;;;11.90;;
37477;SDS011;23334;54.316;10.182;2023-04-16T02:58:21;16.73;;;10.77;;
37477;SDS011;23334;54.316;10.182;2023-04-16T03:00:51;17.70;;;11.50;;
37477;SDS011;23334;54.316;10.182;2023-04-16T03:03:17;26.13;;;12.60;;
37477;SDS011;23334;54.316;10.182;2023-04-16T03:05:43;20.60;;;13.00;;
37477;SDS011;23334;54.316;10.182;2023-04-16T03:08:09;23.27;;;11.83;;
37477;SDS011;23334;54.316;10.182;2023-04-16T03:10:35;19.33;;;11.60;;
37477;SDS011;23334;54.316;10.182;2023-04-16T03:13:01;18.07;;;12.00;;
37477;SDS011;23334;54.316;10.182;2023-04-16T03:15:27;22.90;;;13.00;;
37477;SDS011;23334;54.316;10.182;2023-04-16T03:17:52;24.30;;;12.50;;
37477;SDS011;23334;54.316;10.182;2023-04-16T03:20:18;20.30;;;12.80;;
37477;SDS011;23334;54.316;10.182;2023-04-16T03:22:45;23.17;;;12.50;;
37477;SDS011;23334;54.316;10.182;2023-04-16T03:25:11;17.60;;;11.97;;
37477;SDS011;23334;54.316;10.182;2023-04-16T03:27:37;15.20;;;10.50;;
37477;SDS011;23334;54.316;10.182;2023-04-16T03:30:05;16.80;;;10.80;;
37477;SDS011;23334;54.316;10.182;2023-04-16T03:32:32;21.20;;;10.97;;
37477;SDS011;23334;54.316;10.182;2023-04-16T03:34:58;17.67;;;11.83;;
37477;SDS011;23334;54.316;10.182;2023-04-16T03:37:23;18.67;;;12.17;;
37477;SDS011;23334;54.316;10.182;2023-04-16T03:39:49;15.33;;;11.03;;
37477;SDS011;23334;54.316;10.182;2023-04-16T03:42:14;19.97;;;12.13;;
37477;SDS011;23334;54.316;10.182;2023-04-16T03:44:40;17.23;;;10.87;;
37477;SDS011;23334;54.316;10.182;2023-04-16T03:47:06;17.20;;;10.70;;
37477;SDS011;23334;54.316;10.182;2023-04-16T03:49:31;18.97;;;11.80;;
37477;SDS011;23334;54.316;10.182;2023-04-16T03:51:57;18.37;;;11.60;;
37477;SDS011;23334;54.316;10.182;2023-04-16T03:54:22;18.73;;;11.80;;
37477;SDS011;23334;54.316;10.182;2023-04-16T03:56:48;11.57;;;9.63;;
37477;SDS011;23334;54.316;10.182;2023-04-16T03:59:13;15.70;;;11.13;;
37477;SDS011;23334;54.316;10.182;2023-04-16T04:01:39;16.50;;;11.27;;
37477;SDS011;23334;54.316;10.182;2023-04-16T04:04:05;17.50;;;11.83;;
37477;SDS011;23334;54.316;10.182;2023-04-16T04:06:30;13.40;;;10.23;;
37477;SDS011;23334;54.316;10.182;2023-04-16T04:08:56;22.63;;;11.50;;
37477;SDS011;23334;54.316;10.182;2023-04-16T04:11:22;13.53;;;9.60;;
37477;SDS011;23334;54.316;10.182;2023-04-16T04:13:47;16.37;;;10.33;;
37477;SDS011;23334;54.316;10.182;2023-04-16T04:16:13;15.47;;;11.00;;
37477;SDS011;23334;54.316;10.182;2023-04-16T04:18:38;18.20;;;11.57;;
37477;SDS011;23334;54.316;10.182;2023-04-16T04:21:07;19.00;;;11.13;;
37477;SDS011;23334;54.316;10.182;2023-04-16T04:23:34;18.10;;;10.60;;
37477;SDS011;23334;54.316;10.182;2023-04-16T04:26:00;20.60;;;11.13;;
37477;SDS011;23334;54.316;10.182;2023-04-16T04:28:28;21.33;;;10.30;;
37477;SDS011;23334;54.316;10.182;2023-04-16T04:30:53;17.30;;;10.63;;
37477;SDS011;23334;54.316;10.182;2023-04-16T04:33:19;16.77;;;10.43;;
37477;SDS011;23334;54.316;10.182;2023-04-16T04:35:45;17.97;;;11.10;;
37477;SDS011;23334;54.316;10.182;2023-04-16T04:38:11;12.47;;;9.30;;
37477;SDS011;23334;54.316;10.182;2023-04-16T04:40:36;16.97;;;11.13;;
37477;SDS011;23334;54.316;10.182;2023-04-16T04:43:02;16.30;;;10.60;;
37477;SDS011;23334;54.316;10.182;2023-04-16T04:45:27;26.93;;;11.77;;
37477;SDS011;23334;54.316;10.182;2023-04-16T04:47:53;18.20;;;11.57;;
37477;SDS011;23334;54.316;10.182;2023-04-16T04:50:18;14.40;;;9.57;;
37477;SDS011;23334;54.316;10.182;2023-04-16T04:52:44;19.00;;;10.13;;
37477;SDS011;23334;54.316;10.182;2023-04-16T04:55:10;15.03;;;10.30;;
37477;SDS011;23334;54.316;10.182;2023-04-16T04:57:36;18.13;;;10.47;;
37477;SDS011;23334;54.316;10.182;2023-04-16T05:00:02;14.60;;;9.60;;
37477;SDS011;23334;54.316;10.182;2023-04-16T05:02:28;16.73;;;10.00;;
37477;SDS011;23334;54.316;10.182;2023-04-16T05:04:53;16.47;;;11.87;;
37477;SDS011;23334;54.316;10.182;2023-04-16T05:07:20;15.20;;;10.50;;
37477;SDS011;23334;54.316;10.182;2023-04-16T05:09:45;18.03;;;10.83;;
37477;SDS011;23334;54.316;10.182;2023-04-16T05:12:11;13.30;;;10.03;;
37477;SDS011;23334;54.316;10.182;2023-04-16T05:14:36;19.10;;;10.90;;
37477;SDS011;23334;54.316;10.182;2023-04-16T05:17:02;18.70;;;11.10;;
37477;SDS011;23334;54.316;10.182;2023-04-16T05:19:27;15.33;;;9.70;;
37477;SDS011;23334;54.316;10.182;2023-04-16T05:21:53;16.63;;;10.57;;
37477;SDS011;23334;54.316;10.182;2023-04-16T05:24:18;22.07;;;10.90;;
37477;SDS011;23334;54.316;10.182;2023-04-16T05:26:44;15.90;;;10.43;;
37477;SDS011;23334;54.316;10.182;2023-04-16T05:29:09;15.27;;;10.83;;
37477;SDS011;23334;54.316;10.182;2023-04-16T05:31:35;13.87;;;10.17;;
37477;SDS011;23334;54.316;10.182;2023-04-16T05:34:00;17.87;;;9.90;;
37477;SDS011;23334;54.316;10.182;2023-04-16T05:36:26;14.00;;;9.27;;
37477;SDS011;23334;54.316;10.182;2023-04-16T05:38:51;22.77;;;10.50;;
37477;SDS011;23334;54.316;10.182;2023-04-16T05:41:17;20.00;;;10.10;;
37477;SDS011;23334;54.316;10.182;2023-04-16T05:43:42;14.00;;;9.77;;
37477;SDS011;23334;54.316;10.182;2023-04-16T05:46:08;15.40;;;10.57;;
37477;SDS011;23334;54.316;10.182;2023-04-16T05:48:33;13.70;;;9.87;;
37477;SDS011;23334;54.316;10.182;2023-04-16T05:50:59;12.40;;;10.20;;
37477;SDS011;23334;54.316;10.182;2023-04-16T05:53:26;13.57;;;9.33;;
37477;SDS011;23334;54.316;10.182;2023-04-16T05:55:51;18.23;;;10.37;;
37477;SDS011;23334;54.316;10.182;2023-04-16T05:58:17;15.20;;;10.67;;
37477;SDS011;23334;54.316;10.182;2023-04-16T06:00:42;19.73;;;10.67;;
37477;SDS011;23334;54.316;10.182;2023-04-16T06:03:08;13.70;;;9.30;;
37477;SDS011;23334;54.316;10.182;2023-04-16T06:05:33;16.83;;;10.30;;
37477;SDS011;23334;54.316;10.182;2023-04-16T06:07:59;16.80;;;10.43;;
37477;SDS011;23334;54.316;10.182;2023-04-16T06:10:24;14.93;;;9.60;;
37477;SDS011;23334;54.316;10.182;2023-04-16T06:12:50;14.53;;;9.97;;
37477;SDS011;23334;54.316;10.182;2023-04-16T06:15:15;17.03;;;10.47;;
37477;SDS011;23334;54.316;10.182;2023-04-16T06:17:50;16.27;;;10.20;;
37477;SDS011;23334;54.316;10.182;2023-04-16T06:20:15;17.23;;;10.10;;
37477;SDS011;23334;54.316;10.182;2023-04-16T06:22:41;17.67;;;9.60;;
37477;SDS011;23334;54.316;10.182;2023-04-16T06:25:06;13.43;;;9.47;;
37477;SDS011;23334;54.316;10.182;2023-04-16T06:27:32;17.23;;;10.30;;
37477;SDS011;23334;54.316;10.182;2023-04-16T06:29:58;15.67;;;10.50;;
37477;SDS011;23334;54.316;10.182;2023-04-16T06:32:23;16.57;;;10.70;;
37477;SDS011;23334;54.316;10.182;2023-04-16T06:34:49;12.40;;;9.50;;
37477;SDS011;23334;54.316;10.182;2023-04-16T06:37:15;14.50;;;9.77;;
37477;SDS011;23334;54.316;10.182;2023-04-16T06:39:40;15.90;;;10.27;;
37477;SDS011;23334;54.316;10.182;2023-04-16T06:42:06;19.33;;;11.70;;
37477;SDS011;23334;54.316;10.182;2023-04-16T06:44:32;15.07;;;10.33;;
37477;SDS011;23334;54.316;10.182;2023-04-16T06:46:57;21.97;;;10.10;;
37477;SDS011;23334;54.316;10.182;2023-04-16T06:49:23;16.23;;;11.03;;
37477;SDS011;23334;54.316;10.182;2023-04-16T06:51:49;16.50;;;10.23;;
37477;SDS011;23334;54.316;10.182;2023-04-16T06:54:15;14.13;;;10.13;;
37477;SDS011;23334;54.316;10.182;2023-04-16T06:56:40;16.03;;;10.07;;
37477;SDS011;23334;54.316;10.182;2023-04-16T06:59:06;20.03;;;12.10;;
37477;SDS011;23334;54.316;10.182;2023-04-16T07:01:31;15.30;;;10.87;;
37477;SDS011;23334;54.316;10.182;2023-04-16T07:03:57;15.93;;;11.03;;
37477;SDS011;23334;54.316;10.182;2023-04-16T07:06:23;24.20;;;10.90;;
37477;SDS011;23334;54.316;10.182;2023-04-16T07:08:48;15.23;;;9.80;;
37477;SDS011;23334;54.316;10.182;2023-04-16T07:11:14;14.93;;;10.83;;
37477;SDS011;23334;54.316;10.182;2023-04-16T07:13:40;16.03;;;11.00;;
37477;SDS011;23334;54.316;10.182;2023-04-16T07:16:06;16.17;;;10.50;;
37477;SDS011;23334;54.316;10.182;2023-04-16T07:18:31;15.00;;;10.80;;
37477;SDS011;23334;54.316;10.182;2023-04-16T07:20:57;14.40;;;10.50;;
37477;SDS011;23334;54.316;10.182;2023-04-16T07:23:22;14.37;;;10.10;;
37477;SDS011;23334;54.316;10.182;2023-04-16T07:25:48;18.17;;;10.93;;
37477;SDS011;23334;54.316;10.182;2023-04-16T07:28:14;13.40;;;9.93;;
37477;SDS011;23334;54.316;10.182;2023-04-16T07:30:41;16.37;;;11.47;;
37477;SDS011;23334;54.316;10.182;2023-04-16T07:33:07;13.87;;;10.40;;
37477;SDS011;23334;54.316;10.182;2023-04-16T07:35:33;19.77;;;11.00;;
37477;SDS011;23334;54.316;10.182;2023-04-16T07:37:58;17.57;;;10.50;;
37477;SDS011;23334;54.316;10.182;2023-04-16T07:40:24;19.43;;;11.33;;
37477;SDS011;23334;54.316;10.182;2023-04-16T07:42:50;16.27;;;11.17;;
37477;SDS011;23334;54.316;10.182;2023-04-16T07:45:16;18.30;;;10.60;;
37477;SDS011;23334;54.316;10.182;2023-04-16T07:47:43;14.10;;;10.17;;
37477;SDS011;23334;54.316;10.182;2023-04-16T07:50:10;15.73;;;11.33;;
37477;SDS011;23334;54.316;10.182;2023-04-16T07:52:36;15.30;;;10.40;;
37477;SDS011;23334;54.316;10.182;2023-04-16T07:55:05;20.03;;;11.00;;
37477;SDS011;23334;54.316;10.182;2023-04-16T07:57:31;15.80;;;10.80;;
37477;SDS011;23334;54.316;10.182;2023-04-16T07:59:57;18.50;;;10.73;;
37477;SDS011;23334;54.316;10.182;2023-04-16T08:02:22;14.57;;;10.27;;
37477;SDS011;23334;54.316;10.182;2023-04-16T08:04:47;13.50;;;10.40;;
37477;SDS011;23334;54.316;10.182;2023-04-16T08:07:13;14.73;;;9.93;;
37477;SDS011;23334;54.316;10.182;2023-04-16T08:09:46;14.53;;;9.73;;
37477;SDS011;23334;54.316;10.182;2023-04-16T08:12:13;14.07;;;9.97;;
37477;SDS011;23334;54.316;10.182;2023-04-16T08:14:39;16.57;;;10.37;;
37477;SDS011;23334;54.316;10.182;2023-04-16T08:17:05;17.07;;;10.33;;
37477;SDS011;23334;54.316;10.182;2023-04-16T08:19:31;16.33;;;10.10;;
37477;SDS011;23334;54.316;10.182;2023-04-16T08:21:56;15.50;;;10.10;;
37477;SDS011;23334;54.316;10.182;2023-04-16T08:24:22;22.73;;;10.73;;
37477;SDS011;23334;54.316;10.182;2023-04-16T08:26:47;14.70;;;10.43;;
37477;SDS011;23334;54.316;10.182;2023-04-16T08:29:12;15.30;;;9.60;;
37477;SDS011;23334;54.316;10.182;2023-04-16T08:31:38;17.37;;;11.10;;
37477;SDS011;23334;54.316;10.182;2023-04-16T08:34:05;17.73;;;11.20;;
37477;SDS011;23334;54.316;10.182;2023-04-16T08:36:30;15.17;;;10.40;;
37477;SDS011;23334;54.316;10.182;2023-04-16T08:38:56;19.83;;;9.40;;
37477;SDS011;23334;54.316;10.182;2023-04-16T08:41:22;21.93;;;10.43;;
37477;SDS011;23334;54.316;10.182;2023-04-16T08:43:49;13.47;;;9.80;;
37477;SDS011;23334;54.316;10.182;2023-04-16T08:46:16;13.73;;;9.17;;
37477;SDS011;23334;54.316;10.182;2023-04-16T08:48:41;12.67;;;9.23;;
37477;SDS011;23334;54.316;10.182;2023-04-16T08:51:12;12.97;;;9.53;;
37477;SDS011;23334;54.316;10.182;2023-04-16T08:54:03;11.77;;;8.80;;
37477;SDS011;23334;54.316;10.182;2023-04-16T08:56:28;13.70;;;9.50;;
37477;SDS011;23334;54.316;10.182;2023-04-16T08:58:55;11.87;;;9.20;;
37477;SDS011;23334;54.316;10.182;2023-04-16T09:01:22;17.73;;;10.20;;
37477;SDS011;23334;54.316;10.182;2023-04-16T09:03:49;15.53;;;10.37;;
37477;SDS011;23334;54.316;10.182;2023-04-16T09:06:16;13.70;;;9.43;;
37477;SDS011;23334;54.316;10.182;2023-04-16T09:08:45;22.43;;;9.57;;
37477;SDS011;23334;54.316;10.182;2023-04-16T09:11:18;11.83;;;8.50;;
37477;SDS011;23334;54.316;10.182;2023-04-16T09:13:44;16.57;;;10.67;;
37477;SDS011;23334;54.316;10.182;2023-04-16T09:16:10;16.30;;;9.27;;
37477;SDS011;23334;54.316;10.182;2023-04-16T09:18:37;13.70;;;9.33;;
37477;SDS011;23334;54.316;10.182;2023-04-16T09:21:03;23.93;;;9.93;;
37477;SDS011;23334;54.316;10.182;2023-04-16T09:23:29;17.70;;;9.43;;
37477;SDS011;23334;54.316;10.182;2023-04-16T09:25:55;14.60;;;9.40;;
37477;SDS011;23334;54.316;10.182;2023-04-16T09:28:41;12.90;;;9.20;;
37477;SDS011;23334;54.316;10.182;2023-04-16T09:31:13;14.17;;;10.00;;
37477;SDS011;23334;54.316;10.182;2023-04-16T09:33:41;13.10;;;9.30;;
37477;SDS011;23334;54.316;10.182;2023-04-16T09:36:07;22.50;;;9.53;;
37477;SDS011;23334;54.316;10.182;2023-04-16T09:38:49;14.00;;;9.30;;
37477;SDS011;23334;54.316;10.182;2023-04-16T09:41:16;17.37;;;9.90;;
37477;SDS011;23334;54.316;10.182;2023-04-16T09:43:48;12.47;;;9.17;;
37477;SDS011;23334;54.316;10.182;2023-04-16T09:46:29;14.10;;;8.90;;
37477;SDS011;23334;54.316;10.182;2023-04-16T09:48:55;12.43;;;8.77;;
37477;SDS011;23334;54.316;10.182;2023-04-16T09:51:21;14.03;;;8.70;;
37477;SDS011;23334;54.316;10.182;2023-04-16T09:53:47;16.67;;;9.63;;
37477;SDS011;23334;54.316;10.182;2023-04-16T09:56:17;17.63;;;9.37;;
37477;SDS011;23334;54.316;10.182;2023-04-16T09:58:47;12.10;;;8.63;;
37477;SDS011;23334;54.316;10.182;2023-04-16T10:01:12;11.40;;;8.83;;
37477;SDS011;23334;54.316;10.182;2023-04-16T10:03:38;14.37;;;9.60;;
37477;SDS011;23334;54.316;10.182;2023-04-16T10:08:41;19.10;;;10.07;;
37477;SDS011;23334;54.316;10.182;2023-04-16T10:11:14;11.57;;;8.93;;
37477;SDS011;23334;54.316;10.182;2023-04-16T10:13:40;15.33;;;9.53;;
37477;SDS011;23334;54.316;10.182;2023-04-16T10:16:05;12.30;;;10.30;;
37477;SDS011;23334;54.316;10.182;2023-04-16T10:18:32;17.00;;;10.90;;
37477;SDS011;23334;54.316;10.182;2023-04-16T10:20:59;15.80;;;10.23;;
37477;SDS011;23334;54.316;10.182;2023-04-16T10:23:26;16.97;;;9.70;;
37477;SDS011;23334;54.316;10.182;2023-04-16T10:25:52;18.03;;;10.67;;
37477;SDS011;23334;54.316;10.182;2023-04-16T10:28:19;15.37;;;10.60;;
37477;SDS011;23334;54.316;10.182;2023-04-16T10:30:46;15.73;;;10.00;;
37477;SDS011;23334;54.316;10.182;2023-04-16T10:33:26;16.43;;;10.33;;
37477;SDS011;23334;54.316;10.182;2023-04-16T10:36:06;14.10;;;9.63;;
37477;SDS011;23334;54.316;10.182;2023-04-16T10:38:39;14.47;;;10.87;;
37477;SDS011;23334;54.316;10.182;2023-04-16T10:41:06;13.90;;;10.47;;
37477;SDS011;23334;54.316;10.182;2023-04-16T10:43:33;17.17;;;11.10;;
37477;SDS011;23334;54.316;10.182;2023-04-16T10:46:29;14.30;;;10.17;;
37477;SDS011;23334;54.316;10.182;2023-04-16T10:48:55;20.70;;;11.17;;
37477;SDS011;23334;54.316;10.182;2023-04-16T10:54:01;18.27;;;11.07;;
37477;SDS011;23334;54.316;10.182;2023-04-16T10:56:33;14.60;;;10.70;;
37477;SDS011;23334;54.316;10.182;2023-04-16T10:59:00;13.57;;;10.23;;
37477;SDS011;23334;54.316;10.182;2023-04-16T11:01:33;14.13;;;10.73;;
37477;SDS011;23334;54.316;10.182;2023-04-16T11:04:00;12.30;;;9.93;;
37477;SDS011;23334;54.316;10.182;2023-04-16T11:06:59;15.87;;;10.70;;
37477;SDS011;23334;54.316;10.182;2023-04-16T11:12:32;19.07;;;11.80;;
37477;SDS011;23334;54.316;10.182;2023-04-16T11:17:37;29.73;;;12.07;;
37477;SDS011;23334;54.316;10.182;2023-04-16T11:22:48;17.77;;;10.80;;
37477;SDS011;23334;54.316;10.182;2023-04-16T11:25:18;14.40;;;10.50;;
37477;SDS011;23334;54.316;10.182;2023-04-16T11:27:48;13.60;;;9.80;;
37477;SDS011;23334;54.316;10.182;2023-04-16T11:30:14;13.70;;;10.43;;
37477;SDS011;23334;54.316;10.182;2023-04-16T11:32:39;16.40;;;11.23;;
37477;SDS011;23334;54.316;10.182;2023-04-16T11:35:16;13.30;;;10.60;;
37477;SDS011;23334;54.316;10.182;2023-04-16T11:37:43;18.30;;;11.60;;
37477;SDS011;23334;54.316;10.182;2023-04-16T11:40:09;13.43;;;10.30;;
37477;SDS011;23334;54.316;10.182;2023-04-16T11:42:35;15.93;;;10.87;;
37477;SDS011;23334;54.316;10.182;2023-04-16T11:45:02;16.00;;;10.03;;
37477;SDS011;23334;54.316;10.182;2023-04-16T11:47:29;15.80;;;10.17;;
37477;SDS011;23334;54.316;10.182;2023-04-16T11:49:55;13.40;;;9.40;;
37477;SDS011;23334;54.316;10.182;2023-04-16T11:52:25;15.37;;;10.30;;
37477;SDS011;23334;54.316;10.182;2023-04-16T11:54:51;18.00;;;10.17;;
37477;SDS011;23334;54.316;10.182;2023-04-16T11:57:27;15.13;;;9.70;;
37477;SDS011;23334;54.316;10.182;2023-04-16T11:59:54;13.43;;;9.37;;
37477;SDS011;23334;54.316;10.182;2023-04-16T12:02:36;16.63;;;10.13;;
37477;SDS011;23334;54.316;10.182;2023-04-16T12:05:03;15.97;;;10.40;;
37477;SDS011;23334;54.316;10.182;2023-04-16T12:07:30;14.67;;;9.03;;
37477;SDS011;23334;54.316;10.182;2023-04-16T12:10:05;11.87;;;8.53;;
37477;SDS011;23334;54.316;10.182;2023-04-16T12:12:31;12.37;;;9.43;;
37477;SDS011;23334;54.316;10.182;2023-04-16T12:14:59;13.10;;;10.00;;
37477;SDS011;23334;54.316;10.182;2023-04-16T12:17:27;13.83;;;9.80;;
37477;SDS011;23334;54.316;10.182;2023-04-16T12:19:57;17.40;;;9.20;;
37477;SDS011;23334;54.316;10.182;2023-04-16T12:22:31;14.63;;;9.10;;
37477;SDS011;23334;54.316;10.182;2023-04-16T12:25:09;17.23;;;9.00;;
37477;SDS011;23334;54.316;10.182;2023-04-16T12:27:39;12.10;;;9.17;;
37477;SDS011;23334;54.316;10.182;2023-04-16T12:30:12;12.80;;;9.37;;
37477;SDS011;23334;54.316;10.182;2023-04-16T12:32:40;12.27;;;8.97;;
37477;SDS011;23334;54.316;10.182;2023-04-16T12:35:06;21.47;;;9.33;;
37477;SDS011;23334;54.316;10.182;2023-04-16T12:37:33;15.13;;;9.43;;
37477;SDS011;23334;54.316;10.182;2023-04-16T12:39:59;11.80;;;8.90;;
37477;SDS011;23334;54.316;10.182;2023-04-16T12:42:25;12.87;;;9.63;;
37477;SDS011;23334;54.316;10.182;2023-04-16T12:44:51;12.73;;;9.07;;
37477;SDS011;23334;54.316;10.182;2023-04-16T12:47:17;12.23;;;9.17;;
37477;SDS011;23334;54.316;10.182;2023-04-16T12:49:42;12.67;;;8.93;;
37477;SDS011;23334;54.316;10.182;2023-04-16T12:52:08;13.73;;;9.27;;
37477;SDS011;23334;54.316;10.182;2023-04-16T12:54:34;16.43;;;8.70;;
37477;SDS011;23334;54.316;10.182;2023-04-16T12:57:00;14.47;;;9.60;;
37477;SDS011;23334;54.316;10.182;2023-04-16T12:59:25;15.60;;;9.20;;
37477;SDS011;23334;54.316;10.182;2023-04-16T13:01:51;16.70;;;8.80;;
37477;SDS011;23334;54.316;10.182;2023-04-16T13:04:17;12.10;;;9.80;;
37477;SDS011;23334;54.316;10.182;2023-04-16T13:06:43;10.20;;;8.60;;
37477;SDS011;23334;54.316;10.182;2023-04-16T13:09:09;13.10;;;9.80;;
37477;SDS011;23334;54.316;10.182;2023-04-16T13:11:35;10.83;;;8.13;;
37477;SDS011;23334;54.316;10.182;2023-04-16T13:14:01;14.70;;;8.80;;
37477;SDS011;23334;54.316;10.182;2023-04-16T13:16:27;10.77;;;8.87;;
37477;SDS011;23334;54.316;10.182;2023-04-16T13:18:52;11.37;;;8.73;;
37477;SDS011;23334;54.316;10.182;2023-04-16T13:21:18;10.73;;;9.00;;
37477;SDS011;23334;54.316;10.182;2023-04-16T13:23:44;13.13;;;9.53;;
37477;SDS011;23334;54.316;10.182;2023-04-16T13:26:10;13.80;;;9.97;;
37477;SDS011;23334;54.316;10.182;2023-04-16T13:28:38;14.63;;;8.93;;
37477;SDS011;23334;54.316;10.182;2023-04-16T13:31:04;13.17;;;8.67;;
37477;SDS011;23334;54.316;10.182;2023-04-16T13:33:30;16.03;;;9.67;;
37477;SDS011;23334;54.316;10.182;2023-04-16T13:35:55;16.23;;;10.10;;
37477;SDS011;23334;54.316;10.182;2023-04-16T13:38:21;16.70;;;10.93;;
37477;SDS011;23334;54.316;10.182;2023-04-16T13:40:46;17.10;;;11.53;;
37477;SDS011;23334;54.316;10.182;2023-04-16T13:43:12;13.33;;;9.37;;
37477;SDS011;23334;54.316;10.182;2023-04-16T13:45:37;15.53;;;10.27;;
37477;SDS011;23334;54.316;10.182;2023-04-16T13:48:03;13.23;;;8.77;;
37477;SDS011;23334;54.316;10.182;2023-04-16T13:50:29;11.67;;;8.00;;
37477;SDS011;23334;54.316;10.182;2023-04-16T13:52:55;18.10;;;9.60;;
37477;SDS011;23334;54.316;10.182;2023-04-16T13:55:21;13.20;;;8.83;;
37477;SDS011;23334;54.316;10.182;2023-04-16T13:57:47;12.27;;;9.10;;
37477;SDS011;23334;54.316;10.182;2023-04-16T14:00:13;11.87;;;9.30;;
37477;SDS011;23334;54.316;10.182;2023-04-16T14:02:40;13.30;;;9.30;;
37477;SDS011;23334;54.316;10.182;2023-04-16T14:05:06;10.77;;;8.50;;
37477;SDS011;23334;54.316;10.182;2023-04-16T14:07:32;12.30;;;8.60;;
37477;SDS011;23334;54.316;10.182;2023-04-16T14:09:57;12.20;;;8.80;;
37477;SDS011;23334;54.316;10.182;2023-04-16T14:12:23;16.20;;;8.47;;
37477;SDS011;23334;54.316;10.182;2023-04-16T14:14:48;17.33;;;9.10;;
37477;SDS011;23334;54.316;10.182;2023-04-16T14:17:14;16.13;;;8.50;;
37477;SDS011;23334;54.316;10.182;2023-04-16T14:19:39;10.60;;;8.77;;
37477;SDS011;23334;54.316;10.182;2023-04-16T14:22:05;14.40;;;9.20;;
37477;SDS011;23334;54.316;10.182;2023-04-16T14:24:31;12.63;;;9.40;;